createdAt,value
2022-09-20T00:01:12.083Z,101021.56
2022-09-20T00:03:40.848Z,101019.44
2022-09-20T00:06:09.259Z,101016.59
2022-09-20T00:08:36.422Z,101014.72
2022-09-20T00:11:04.208Z,101009.91
2022-09-20T00:13:31.443Z,101011.78
2022-09-20T00:15:59.019Z,101003.88
2022-09-20T00:18:26.923Z,101011.34
2022-09-20T00:20:54.043Z,101009.94
2022-09-20T00:23:20.908Z,101013.28
2022-09-20T00:25:55.341Z,101003.69
2022-09-20T00:28:22.069Z,101007.50
2022-09-20T00:30:49.255Z,101002.94
2022-09-20T00:33:16.037Z,101009.16
2022-09-20T00:35:45.835Z,101006.69
2022-09-20T00:38:16.497Z,100995.09
2022-09-20T00:40:44.750Z,101001.69
2022-09-20T00:43:16.461Z,101002.94
2022-09-20T00:45:47.106Z,101001.69
2022-09-20T00:48:18.782Z,101003.16
2022-09-20T00:50:58.032Z,100998.81
2022-09-20T00:53:29.721Z,100995.97
2022-09-20T00:55:58.709Z,100996.47
2022-09-20T00:58:27.848Z,100992.53
2022-09-20T01:00:55.889Z,100999.41
2022-09-20T01:03:25.255Z,100999.13
2022-09-20T01:05:53.604Z,101003.69
2022-09-20T01:08:21.062Z,100997.78
2022-09-20T01:10:48.496Z,101006.69
2022-09-20T01:13:15.207Z,101004.69
2022-09-20T01:15:42.589Z,101003.69
2022-09-20T01:18:09.730Z,101005.94
2022-09-20T01:20:42.154Z,101008.25
2022-09-20T01:23:14.966Z,101002.94
2022-09-20T01:26:04.875Z,101000.25
2022-09-20T01:28:31.753Z,101002.41
2022-09-20T01:31:09.314Z,101010.75
2022-09-20T01:33:49.932Z,101013.25
2022-09-20T01:36:23.457Z,101011.38
2022-09-20T01:38:59.284Z,101007.25
2022-09-20T01:41:35.429Z,101009.66
2022-09-20T01:44:11.824Z,101012.59
2022-09-20T01:46:38.698Z,101007.81
2022-09-20T01:49:13.129Z,101007.38
2022-09-20T01:52:03.060Z,101008.81
2022-09-20T01:54:42.000Z,101000.75
2022-09-20T01:57:27.291Z,100998.69
2022-09-20T02:00:07.236Z,101004.78
2022-09-20T02:03:05.413Z,101008.81
2022-09-20T02:05:37.727Z,101005.50
2022-09-20T02:08:22.373Z,101006.00
2022-09-20T02:10:55.025Z,101007.34
2022-09-20T02:13:36.266Z,101005.09
2022-09-20T02:16:21.750Z,101008.47
2022-09-20T02:19:07.874Z,101002.47
2022-09-20T02:22:39.356Z,101010.09
2022-09-20T02:25:05.936Z,101014.00
2022-09-20T02:27:53.910Z,101009.34
2022-09-20T02:30:35.725Z,101010.31
2022-09-20T02:33:05.432Z,101004.97
2022-09-20T02:35:41.750Z,101010.72
2022-09-20T02:38:18.169Z,101006.34
2022-09-20T02:41:04.012Z,101005.09
2022-09-20T02:43:33.673Z,100996.50
2022-09-20T02:46:19.317Z,100995.44
2022-09-20T02:48:51.779Z,101013.16
2022-09-20T02:51:41.808Z,100998.28
2022-09-20T02:54:26.801Z,101001.56
2022-09-20T02:57:18.247Z,100992.66
2022-09-20T03:00:00.758Z,100993.91
2022-09-20T03:02:39.841Z,101003.44
2022-09-20T03:05:14.437Z,100988.34
2022-09-20T03:07:41.187Z,100983.75
2022-09-20T03:10:26.223Z,100985.22
2022-09-20T03:13:17.768Z,100984.41
2022-09-20T03:15:47.115Z,100983.31
2022-09-20T03:18:19.746Z,100988.50
2022-09-20T03:21:06.689Z,100989.56
2022-09-20T03:24:10.986Z,100987.53
2022-09-20T03:26:42.341Z,100981.75
2022-09-20T03:29:21.066Z,100970.38
2022-09-20T03:32:22.308Z,100976.06
2022-09-20T03:34:53.988Z,100975.31
2022-09-20T03:37:42.063Z,100972.94
2022-09-20T03:41:01.701Z,100971.66
2022-09-20T03:43:34.277Z,100964.41
2022-09-20T03:46:26.681Z,100963.13
2022-09-20T03:49:21.185Z,100964.34
2022-09-20T03:52:01.172Z,100960.06
2022-09-20T03:54:53.655Z,100957.44
2022-09-20T03:57:35.450Z,100963.97
2022-09-20T04:00:20.852Z,100963.13
2022-09-20T04:03:12.623Z,100958.34
2022-09-20T04:05:39.304Z,100958.19
2022-09-20T04:08:08.724Z,100959.00
2022-09-20T04:10:59.808Z,100954.44
2022-09-20T04:13:40.933Z,100949.66
2022-09-20T04:16:23.489Z,100954.22
2022-09-20T04:18:58.491Z,100965.69
2022-09-20T04:21:37.387Z,100965.63
2022-09-20T04:24:14.849Z,100964.78
2022-09-20T04:26:47.015Z,100966.06
2022-09-20T04:29:46.060Z,100965.63
2022-09-20T04:32:29.288Z,100964.19
2022-09-20T04:35:50.059Z,100957.97
2022-09-20T04:38:19.007Z,100962.84
2022-09-20T04:40:57.708Z,100961.22
2022-09-20T04:43:51.248Z,100959.56
2022-09-20T04:46:26.026Z,100959.19
2022-09-20T04:49:20.829Z,100964.72
2022-09-20T04:52:04.108Z,100962.31
2022-09-20T04:55:10.369Z,100960.38
2022-09-20T04:58:16.306Z,100954.84
2022-09-20T05:00:56.047Z,100964.56
2022-09-20T05:04:00.281Z,100971.22
2022-09-20T05:06:43.914Z,100965.03
2022-09-20T05:09:36.530Z,100967.03
2022-09-20T05:12:44.795Z,100964.03
2022-09-20T05:15:16.700Z,100970.47
2022-09-20T05:18:01.875Z,100966.06
2022-09-20T05:20:47.242Z,100962.72
2022-09-20T05:23:13.962Z,100967.13
2022-09-20T05:26:13.109Z,100966.06
2022-09-20T05:28:58.591Z,100964.63
2022-09-20T05:31:40.398Z,100960.56
2022-09-20T05:34:29.249Z,100961.22
2022-09-20T05:37:02.053Z,100954.84
2022-09-20T05:39:38.891Z,100959.72
2022-09-20T05:42:18.411Z,100954.41
2022-09-20T05:45:04.400Z,100954.03
2022-09-20T05:48:01.872Z,100949.91
2022-09-20T05:50:55.814Z,100955.72
2022-09-20T05:53:45.671Z,100953.66
2022-09-20T05:56:27.276Z,100952.59
2022-09-20T05:58:59.840Z,100953.03
2022-09-20T06:01:31.656Z,100954.13
2022-09-20T06:04:05.760Z,100953.09
2022-09-20T06:07:02.454Z,100948.69
2022-09-20T06:09:52.410Z,100956.81
2022-09-20T06:12:31.393Z,100961.44
2022-09-20T06:15:19.826Z,100957.72
2022-09-20T06:18:20.995Z,100957.28
2022-09-20T06:20:56.906Z,100957.03
2022-09-20T06:23:23.747Z,100959.53
2022-09-20T06:25:57.275Z,100956.56
2022-09-20T06:28:58.264Z,100963.56
2022-09-20T06:31:26.404Z,100947.44
2022-09-20T06:34:04.265Z,100957.59
2022-09-20T06:36:55.173Z,100958.00
2022-09-20T06:39:49.060Z,100969.41
2022-09-20T06:42:15.847Z,100970.84
2022-09-20T06:44:43.381Z,100968.31
2022-09-20T06:47:11.059Z,100973.84
2022-09-20T06:49:37.862Z,100970.34
2022-09-20T06:52:05.752Z,100967.63
2022-09-20T06:54:32.989Z,100967.41
2022-09-20T06:57:03.307Z,100981.06
2022-09-20T06:59:30.027Z,100979.22
2022-09-20T07:01:57.194Z,100983.13
2022-09-20T07:04:24.931Z,100979.84
2022-09-20T07:06:51.669Z,100988.34
2022-09-20T07:09:18.434Z,100985.75
2022-09-20T07:11:46.205Z,100978.28
2022-09-20T07:14:12.951Z,100980.31
2022-09-20T07:16:40.111Z,100977.13
2022-09-20T07:19:06.903Z,100976.25
2022-09-20T07:21:33.594Z,100982.41
2022-09-20T07:24:00.469Z,100971.03
2022-09-20T07:26:29.329Z,100974.47
2022-09-20T07:28:57.487Z,100970.75
2022-09-20T07:31:26.639Z,100973.38
2022-09-20T07:33:53.756Z,100979.09
2022-09-20T07:36:20.583Z,100983.78
2022-09-20T07:38:50.168Z,100980.47
2022-09-20T07:41:19.097Z,100980.69
2022-09-20T07:43:46.598Z,100978.56
2022-09-20T07:46:16.210Z,100980.13
2022-09-20T07:48:42.995Z,100980.69
2022-09-20T07:51:12.794Z,100980.94
2022-09-20T07:53:40.143Z,100978.06
2022-09-20T07:56:11.609Z,100982.22
2022-09-20T07:58:38.751Z,100981.91
2022-09-20T08:01:10.794Z,100979.34
2022-09-20T08:03:37.908Z,100983.19
2022-09-20T08:06:07.276Z,100992.91
2022-09-20T08:08:38.553Z,100986.72
2022-09-20T08:11:08.027Z,100984.16
2022-09-20T08:16:27.222Z,100978.09
2022-09-20T08:19:00.280Z,100989.34
2022-09-20T08:21:34.841Z,100989.72
2022-09-20T08:24:01.864Z,100986.41
2022-09-20T08:26:31.181Z,100997.94
2022-09-20T08:29:00.127Z,100992.56
2022-09-20T08:31:34.450Z,100996.25
2022-09-20T08:34:04.996Z,100999.22
2022-09-20T08:36:36.792Z,100996.66
2022-09-20T08:41:56.809Z,100993.75
2022-09-20T08:44:34.755Z,100990.06
2022-09-20T08:47:17.687Z,100986.53
2022-09-20T08:49:46.080Z,100988.66
2022-09-20T08:52:19.162Z,100993.09
2022-09-20T08:54:46.179Z,101002.47
2022-09-20T08:57:16.065Z,100997.88
2022-09-20T08:59:42.968Z,100992.56
2022-09-20T09:02:19.010Z,101002.97
2022-09-20T09:04:46.500Z,100993.31
2022-09-20T09:07:15.189Z,100999.44
2022-09-20T09:09:46.702Z,100999.44
2022-09-20T09:12:26.478Z,100996.28
2022-09-20T09:14:57.309Z,100998.72
2022-09-20T09:17:27.906Z,101002.69
2022-09-20T09:19:56.825Z,101002.84
2022-09-20T09:22:36.891Z,100998.34
2022-09-20T09:25:42.069Z,100999.53
2022-09-20T09:28:08.774Z,101003.50
2022-09-20T09:30:37.874Z,101003.56
2022-09-20T09:33:20.047Z,101009.78
2022-09-20T09:36:05.445Z,100999.16
2022-09-20T09:38:36.780Z,101001.22
2022-09-20T09:41:06.041Z,101002.97
2022-09-20T09:43:35.642Z,101002.84
2022-09-20T09:46:21.620Z,101005.59
2022-09-20T09:49:12.266Z,101001.56
2022-09-20T09:51:42.457Z,101001.69
2022-09-20T09:54:17.034Z,100995.88
2022-09-20T09:57:01.900Z,101001.44
2022-09-20T09:59:47.950Z,100996.50
2022-09-20T10:02:39.352Z,101005.25
2022-09-20T10:05:42.784Z,101002.72
2022-09-20T10:08:30.798Z,101007.06
2022-09-20T10:11:00.905Z,101007.91
2022-09-20T10:13:55.654Z,101008.75
2022-09-20T10:16:37.291Z,101005.56
2022-09-20T10:19:22.813Z,100998.56
2022-09-20T10:22:01.848Z,101004.94
2022-09-20T10:24:31.465Z,101002.19
2022-09-20T10:27:07.230Z,101008.69
2022-09-20T10:30:00.410Z,101017.53
2022-09-20T10:33:01.407Z,101005.06
2022-09-20T10:35:37.452Z,101010.47
2022-09-20T10:38:25.229Z,101004.00
2022-09-20T10:41:10.387Z,101007.88
2022-09-20T10:44:04.174Z,101004.94
2022-09-20T10:46:38.154Z,100997.28
2022-09-20T10:49:24.994Z,100993.09
2022-09-20T10:52:08.538Z,100998.66
2022-09-20T10:54:38.405Z,100998.19
2022-09-20T10:57:28.585Z,100988.78
2022-09-20T11:00:17.890Z,100983.06
2022-09-20T11:02:50.686Z,100984.94
2022-09-20T11:05:28.596Z,100993.03
2022-09-20T11:08:03.765Z,100987.63
2022-09-20T11:10:42.410Z,100987.22
2022-09-20T11:13:27.507Z,100988.34
2022-09-20T11:16:00.339Z,100982.22
2022-09-20T11:18:33.610Z,100980.81
2022-09-20T11:21:08.931Z,100978.88
2022-09-20T11:24:06.699Z,100982.34
2022-09-20T11:26:40.677Z,100978.72
2022-09-20T11:29:24.306Z,100979.13
2022-09-20T11:31:53.285Z,100979.22
2022-09-20T11:34:30.167Z,100977.09
2022-09-20T11:37:01.315Z,100972.31
2022-09-20T11:39:40.464Z,100977.81
2022-09-20T11:42:14.513Z,100979.00
2022-09-20T11:44:41.969Z,100968.53
2022-09-20T11:47:42.928Z,100977.00
2022-09-20T11:50:17.742Z,100962.94
2022-09-20T11:53:10.977Z,100958.13
2022-09-20T11:55:59.175Z,100960.72
2022-09-20T11:58:27.384Z,100955.69
2022-09-20T12:00:56.611Z,100957.91
2022-09-20T12:03:37.492Z,100952.91
2022-09-20T12:06:33.433Z,100960.19
2022-09-20T12:09:16.172Z,100953.13
2022-09-20T12:11:43.222Z,100961.56
2022-09-20T12:14:26.300Z,100966.91
2022-09-20T12:16:54.042Z,100961.75
2022-09-20T12:19:33.360Z,100955.59
2022-09-20T12:22:01.056Z,100949.25
2022-09-20T12:24:29.403Z,100951.22
2022-09-20T12:26:59.653Z,100950.63
2022-09-20T12:29:35.209Z,100956.84
2022-09-20T12:32:03.341Z,100951.06
2022-09-20T12:34:36.140Z,100949.25
2022-09-20T12:37:04.741Z,100941.59
2022-09-20T12:39:36.115Z,100941.44
2022-09-20T12:42:12.002Z,100942.59
2022-09-20T12:45:00.421Z,100945.09
2022-09-20T12:47:30.005Z,100940.63
2022-09-20T12:50:17.002Z,100949.03
2022-09-20T12:53:02.653Z,100936.81
2022-09-20T12:55:56.599Z,100939.47
2022-09-20T12:58:26.263Z,100943.25
2022-09-20T13:01:14.477Z,100949.16
2022-09-20T13:03:43.550Z,100950.47
2022-09-20T13:06:10.205Z,100941.69
2022-09-20T13:08:48.029Z,100940.84
2022-09-20T13:11:21.119Z,100942.84
2022-09-20T13:13:50.657Z,100945.59
2022-09-20T13:16:27.534Z,100939.97
2022-09-20T13:19:12.739Z,100935.41
2022-09-20T13:21:41.809Z,100927.16
2022-09-20T13:24:15.591Z,100926.09
2022-09-20T13:26:45.768Z,100930.19
2022-09-20T13:29:35.129Z,100930.50
2022-09-20T13:32:27.875Z,100924.06
2022-09-20T13:35:12.698Z,100913.72
2022-09-20T13:37:53.185Z,100916.13
2022-09-20T13:40:38.542Z,100912.66
2022-09-20T13:43:23.243Z,100913.97
2022-09-20T13:45:57.601Z,100921.56
2022-09-20T13:48:26.490Z,100910.66
2022-09-20T13:50:54.057Z,100913.59
2022-09-20T13:53:40.691Z,100912.31
2022-09-20T13:56:29.888Z,100912.06
2022-09-20T13:58:59.038Z,100916.94
2022-09-20T14:01:34.461Z,100916.94
2022-09-20T14:04:13.799Z,100912.34
2022-09-20T14:06:40.973Z,100912.88
2022-09-20T14:09:11.304Z,100904.97
2022-09-20T14:11:38.670Z,100908.53
2022-09-20T14:14:05.637Z,100907.47
2022-09-20T14:16:34.972Z,100912.44
2022-09-20T14:19:02.898Z,100906.69
2022-09-20T14:21:32.772Z,100910.75
2022-09-20T14:24:04.934Z,100905.81
2022-09-20T14:26:39.886Z,100903.00
2022-09-20T14:29:34.588Z,100913.38
2022-09-20T14:32:07.410Z,100907.44
2022-09-20T14:34:38.938Z,100903.91
2022-09-20T14:37:11.390Z,100893.88
2022-09-20T14:39:47.970Z,100891.91
2022-09-20T14:42:30.599Z,100894.88
2022-09-20T14:44:57.630Z,100886.78
2022-09-20T14:47:38.702Z,100892.50
2022-09-20T14:50:24.193Z,100885.53
2022-09-20T14:53:11.255Z,100886.81
2022-09-20T14:56:10.159Z,100881.81
2022-09-20T14:59:11.027Z,100884.91
2022-09-20T15:01:41.158Z,100889.34
2022-09-20T15:04:23.053Z,100884.63
2022-09-20T15:06:51.280Z,100882.22
2022-09-20T15:09:18.976Z,100867.97
2022-09-20T15:11:45.721Z,100883.31
2022-09-20T15:14:12.508Z,100881.97
2022-09-20T15:16:39.374Z,100869.13
2022-09-20T15:19:08.094Z,100864.94
2022-09-20T15:21:34.965Z,100870.53
2022-09-20T15:24:01.970Z,100873.94
2022-09-20T15:26:29.405Z,100863.56
2022-09-20T15:28:56.215Z,100856.81
2022-09-20T15:31:23.176Z,100860.41
2022-09-20T15:33:50.044Z,100863.34
2022-09-20T15:36:17.218Z,100867.69
2022-09-20T15:38:44.037Z,100861.56
2022-09-20T15:41:10.801Z,100861.91
2022-09-20T15:43:37.699Z,100856.09
2022-09-20T15:46:19.776Z,100866.31
2022-09-20T15:48:46.865Z,100852.44
2022-09-20T15:51:15.231Z,100846.41
2022-09-20T15:53:48.693Z,100846.97
2022-09-20T15:56:18.050Z,100849.66
2022-09-20T16:11:58.862Z,100852.00
2022-09-20T16:14:25.913Z,100850.03
2022-09-20T16:16:52.660Z,100841.44
2022-09-20T16:19:23.754Z,100849.53
2022-09-20T16:21:58.215Z,100840.59
2022-09-20T16:24:27.872Z,100848.09
2022-09-20T16:26:54.868Z,100851.75
2022-09-20T16:29:25.925Z,100851.19
2022-09-20T16:31:54.062Z,100850.59
2022-09-20T16:34:32.520Z,100837.25
2022-09-20T16:37:08.878Z,100842.50
2022-09-20T16:39:35.739Z,100844.16
2022-09-20T16:42:04.870Z,100848.56
2022-09-20T16:44:36.608Z,100855.09
2022-09-20T16:47:08.870Z,100848.31
2022-09-20T16:49:36.481Z,100848.63
2022-09-20T16:52:07.062Z,100849.16
2022-09-20T16:54:34.130Z,100840.16
2022-09-20T16:57:01.314Z,100842.88
2022-09-20T16:59:28.349Z,100849.16
2022-09-20T17:01:55.141Z,100847.75
2022-09-20T17:04:22.056Z,100852.69
2022-09-20T17:06:49.591Z,100846.66
2022-09-20T17:09:16.690Z,100852.94
2022-09-20T17:11:49.330Z,100851.81
2022-09-20T17:14:18.598Z,100851.28
2022-09-20T17:16:49.484Z,100849.06
2022-09-20T17:19:19.924Z,100867.25
2022-09-20T17:21:50.200Z,100862.34
2022-09-20T17:24:19.712Z,100856.00
2022-09-20T17:26:46.519Z,100863.00
2022-09-20T17:29:16.206Z,100863.50
2022-09-20T17:31:48.804Z,100870.56
2022-09-20T17:34:21.567Z,100863.75
2022-09-20T17:36:49.226Z,100866.66
2022-09-20T17:39:16.637Z,100862.19
2022-09-20T17:41:48.017Z,100864.06
2022-09-20T17:44:15.664Z,100865.41
2022-09-20T17:46:46.820Z,100862.19
2022-09-20T17:49:16.779Z,100866.72
2022-09-20T17:51:54.860Z,100865.66
2022-09-20T17:54:23.261Z,100859.09
2022-09-20T17:56:51.799Z,100867.75
2022-09-20T17:59:19.495Z,100859.34
2022-09-20T18:01:48.283Z,100872.00
2022-09-20T18:04:15.924Z,100869.81
2022-09-20T18:06:48.075Z,100876.81
2022-09-20T18:09:16.596Z,100874.06
2022-09-20T18:11:49.710Z,100880.31
2022-09-20T18:14:23.217Z,100883.00
2022-09-20T18:17:00.042Z,100886.19
2022-09-20T18:19:33.877Z,100882.34
2022-09-20T18:22:04.288Z,100886.34
2022-09-20T18:24:31.635Z,100883.31
2022-09-20T18:27:00.646Z,100889.28
2022-09-20T18:29:28.727Z,100881.91
2022-09-20T18:31:55.669Z,100889.22
2022-09-20T18:34:31.241Z,100887.16
2022-09-20T18:36:59.145Z,100883.97
2022-09-20T18:39:27.954Z,100886.94
2022-09-20T18:41:55.342Z,100888.91
2022-09-20T18:44:22.874Z,100894.66
2022-09-20T18:46:53.087Z,100894.25
2022-09-20T18:49:21.540Z,100896.78
2022-09-20T18:51:49.338Z,100898.16
2022-09-20T18:54:16.730Z,100891.88
2022-09-20T18:56:48.141Z,100895.88
2022-09-20T18:59:20.337Z,100893.56
2022-09-20T19:01:50.075Z,100891.03
2022-09-20T19:04:58.519Z,100892.13
2022-09-20T19:07:28.099Z,100895.78
2022-09-20T19:10:06.866Z,100896.22
2022-09-20T19:12:48.785Z,100897.47
2022-09-20T19:15:22.702Z,100897.25
2022-09-20T19:17:54.307Z,100906.47
2022-09-20T19:20:34.029Z,100899.88
2022-09-20T19:23:19.793Z,100904.22
2022-09-20T19:25:47.540Z,100902.53
2022-09-20T19:28:15.906Z,100901.38
2022-09-20T19:30:43.105Z,100900.66
2022-09-20T19:33:16.429Z,100897.59
2022-09-20T19:35:49.489Z,100906.31
2022-09-20T19:38:41.408Z,100901.91
2022-09-20T19:41:30.559Z,100903.19
2022-09-20T19:44:21.956Z,100893.50
2022-09-20T19:47:20.035Z,100900.31
2022-09-20T19:49:56.983Z,100901.75
2022-09-20T19:52:24.262Z,100906.47
2022-09-20T19:54:52.013Z,100912.03
2022-09-20T19:57:21.857Z,100904.59
2022-09-20T19:59:49.731Z,100900.94
2022-09-20T20:02:17.550Z,100904.66
2022-09-20T20:04:44.831Z,100904.91
2022-09-20T20:07:40.889Z,100900.31
2022-09-20T20:10:32.100Z,100910.75
2022-09-20T20:13:37.587Z,100903.84
2022-09-20T20:16:12.377Z,100900.41
2022-09-20T20:18:39.074Z,100899.53
2022-09-20T20:21:18.203Z,100903.13
2022-09-20T20:24:05.002Z,100903.78
2022-09-20T20:26:31.974Z,100903.22
2022-09-20T20:28:58.674Z,100909.19
2022-09-20T20:31:25.492Z,100907.75
2022-09-20T20:33:52.611Z,100915.63
2022-09-20T20:36:19.355Z,100915.31
2022-09-20T20:38:49.969Z,100915.00
2022-09-20T20:41:21.760Z,100905.22
2022-09-20T20:43:53.287Z,100914.06
2022-09-20T20:46:20.136Z,100913.56
2022-09-20T20:48:50.202Z,100913.19
2022-09-20T20:51:19.079Z,100913.94
2022-09-20T20:53:48.128Z,100909.84
2022-09-20T20:56:17.859Z,100906.97
2022-09-20T20:58:45.762Z,100908.06
2022-09-20T21:01:21.316Z,100908.97
2022-09-20T21:03:52.571Z,100909.41
2022-09-20T21:06:20.521Z,100907.19
2022-09-20T21:08:49.801Z,100908.66
2022-09-20T21:11:25.316Z,100910.06
2022-09-20T21:13:53.037Z,100905.94
2022-09-20T21:16:22.914Z,100901.09
2022-09-20T21:18:51.001Z,100902.56
2022-09-20T21:21:22.655Z,100905.34
2022-09-20T21:23:51.914Z,100901.25
2022-09-20T21:26:19.562Z,100900.75
2022-09-20T21:28:51.462Z,100903.63
2022-09-20T21:31:19.247Z,100908.91
2022-09-20T21:33:46.051Z,100912.84
2022-09-20T21:36:14.648Z,100909.69
2022-09-20T21:38:42.440Z,100910.41
2022-09-20T21:41:09.138Z,100917.09
2022-09-20T21:43:36.418Z,100908.25
2022-09-20T21:46:04.042Z,100913.66
2022-09-20T21:48:30.895Z,100909.22
2022-09-20T21:51:02.549Z,100907.81
2022-09-20T21:53:29.860Z,100910.97
2022-09-20T21:56:00.598Z,100905.47
2022-09-20T21:58:28.051Z,100910.53
2022-09-20T22:01:04.448Z,100908.41
2022-09-20T22:03:32.138Z,100904.63
2022-09-20T22:06:08.748Z,100900.50
2022-09-20T22:08:42.219Z,100900.50
2022-09-20T22:11:15.047Z,100900.72
2022-09-20T22:13:50.028Z,100907.31
2022-09-20T22:16:20.897Z,100903.03
2022-09-20T22:18:49.867Z,100903.28
2022-09-20T22:21:19.247Z,100905.66
2022-09-20T22:23:52.196Z,100904.16
2022-09-20T22:26:21.789Z,100906.97
2022-09-20T22:28:51.950Z,100905.09
2022-09-20T22:31:23.920Z,100898.59
2022-09-20T22:33:55.623Z,100903.75
2022-09-20T22:36:27.423Z,100906.78
2022-09-20T22:38:54.692Z,100898.53
2022-09-20T22:41:21.915Z,100904.34
2022-09-20T22:43:49.022Z,100907.75
2022-09-20T22:46:18.440Z,100905.94
2022-09-20T22:48:45.635Z,100901.78
2022-09-20T22:51:15.135Z,100891.41
2022-09-20T22:53:42.264Z,100897.59
2022-09-20T22:56:12.163Z,100897.72
2022-09-20T22:58:44.361Z,100895.06
2022-09-20T23:01:15.340Z,100890.09
2022-09-20T23:03:43.017Z,100893.31
2022-09-20T23:06:14.239Z,100890.47
2022-09-20T23:08:41.482Z,100886.09
2022-09-20T23:11:08.883Z,100887.53
2022-09-20T23:13:36.588Z,100876.84
2022-09-20T23:16:20.246Z,100876.19
2022-09-20T23:18:48.134Z,100883.59
2022-09-20T23:21:15.284Z,100881.34
2022-09-20T23:23:45.266Z,100885.09
2022-09-20T23:26:18.856Z,100878.19
2022-09-20T23:28:51.715Z,100884.25
2022-09-20T23:31:19.005Z,100875.19
2022-09-20T23:33:53.638Z,100870.31
2022-09-20T23:36:21.083Z,100868.22
2022-09-20T23:38:48.481Z,100873.63
2022-09-20T23:41:18.320Z,100878.91
2022-09-20T23:43:45.349Z,100866.50
2022-09-20T23:46:13.839Z,100873.25
2022-09-20T23:48:44.391Z,100871.47
2022-09-20T23:51:13.411Z,100874.50
2022-09-20T23:53:40.542Z,100873.94
2022-09-20T23:56:07.663Z,100861.44
2022-09-20T23:58:36.508Z,100868.97
